createdAt,value
2018-03-25T00:01:39.679Z,10.50
2018-03-25T00:04:07.160Z,7.63
2018-03-25T00:06:34.655Z,9.93
2018-03-25T00:09:02.188Z,10.10
2018-03-25T00:11:29.713Z,14.07
2018-03-25T00:13:57.215Z,10.70
2018-03-25T00:16:24.713Z,9.17
2018-03-25T00:18:52.205Z,9.70
2018-03-25T00:21:19.700Z,8.93
2018-03-25T00:23:47.221Z,8.13
2018-03-25T00:26:14.760Z,9.30
2018-03-25T00:28:42.241Z,6.33
2018-03-25T00:31:09.738Z,7.10
2018-03-25T00:33:37.219Z,9.07
2018-03-25T00:36:04.697Z,11.40
2018-03-25T00:38:32.182Z,7.10
2018-03-25T00:40:59.662Z,7.07
2018-03-25T00:43:27.141Z,9.47
2018-03-25T00:45:54.625Z,12.80
2018-03-25T00:48:22.126Z,6.67
2018-03-25T00:50:49.601Z,7.73
2018-03-25T00:53:17.093Z,8.50
2018-03-25T00:55:44.599Z,8.93
2018-03-25T00:58:12.246Z,7.43
2018-03-25T01:00:39.845Z,9.73
2018-03-25T01:03:07.389Z,9.13
2018-03-25T01:05:34.956Z,7.80
2018-03-25T01:08:02.518Z,8.73
2018-03-25T01:10:30.014Z,9.13
2018-03-25T01:12:57.505Z,7.40
2018-03-25T01:15:25.035Z,17.37
2018-03-25T01:17:52.590Z,6.63
2018-03-25T01:20:20.066Z,9.97
2018-03-25T01:22:47.563Z,13.83
2018-03-25T01:25:15.090Z,9.30
2018-03-25T01:27:42.590Z,10.37
2018-03-25T01:30:10.109Z,12.47
2018-03-25T01:32:38.396Z,7.83
2018-03-25T01:35:05.865Z,8.93
2018-03-25T01:37:33.370Z,10.43
2018-03-25T01:40:00.922Z,13.33
2018-03-25T01:42:28.409Z,9.40
2018-03-25T01:44:55.905Z,9.87
2018-03-25T01:47:23.399Z,9.20
2018-03-25T01:49:50.877Z,8.33
2018-03-25T01:52:18.375Z,10.30
2018-03-25T01:54:45.853Z,9.27
2018-03-25T01:57:13.345Z,9.33
2018-03-25T01:59:40.945Z,11.33
2018-03-25T02:02:08.856Z,10.23
2018-03-25T02:04:36.668Z,7.83
2018-03-25T02:07:04.201Z,8.53
2018-03-25T02:09:31.722Z,10.43
2018-03-25T02:11:59.202Z,5.07
2018-03-25T02:14:26.707Z,6.97
2018-03-25T02:16:54.204Z,10.90
2018-03-25T02:19:21.699Z,8.77
2018-03-25T02:21:49.181Z,10.27
2018-03-25T02:24:16.678Z,6.73
2018-03-25T02:26:44.156Z,8.70
2018-03-25T02:29:11.649Z,6.77
2018-03-25T02:31:39.193Z,9.80
2018-03-25T02:34:06.787Z,8.07
2018-03-25T02:36:34.262Z,9.27
2018-03-25T02:39:01.737Z,6.23
2018-03-25T02:41:29.279Z,10.67
2018-03-25T02:43:56.783Z,7.20
2018-03-25T02:46:24.261Z,9.47
2018-03-25T02:48:51.741Z,10.17
2018-03-25T02:51:19.235Z,8.70
2018-03-25T02:53:46.755Z,7.93
2018-03-25T02:56:14.370Z,8.07
2018-03-25T02:58:41.846Z,9.97
2018-03-25T03:01:09.634Z,7.40
2018-03-25T03:03:37.166Z,10.80
2018-03-25T03:06:04.719Z,9.43
2018-03-25T03:08:32.221Z,7.80
2018-03-25T03:10:59.769Z,7.70
2018-03-25T03:13:27.285Z,9.13
2018-03-25T03:15:54.821Z,9.53
2018-03-25T03:18:22.301Z,9.33
2018-03-25T03:20:49.783Z,9.07
2018-03-25T03:23:17.258Z,12.10
2018-03-25T03:25:44.745Z,7.93
2018-03-25T03:28:12.261Z,11.20
2018-03-25T03:30:39.754Z,8.20
2018-03-25T03:33:07.242Z,7.53
2018-03-25T03:35:34.712Z,9.03
2018-03-25T03:38:02.246Z,8.40
2018-03-25T03:40:29.725Z,11.40
2018-03-25T03:42:57.214Z,8.63
2018-03-25T03:45:24.689Z,10.53
2018-03-25T03:47:52.168Z,10.73
2018-03-25T03:50:19.666Z,12.67
2018-03-25T03:52:47.148Z,9.60
2018-03-25T03:55:14.645Z,12.30
2018-03-25T03:57:42.143Z,12.33
2018-03-25T04:00:09.658Z,8.77
2018-03-25T04:02:37.262Z,10.10
2018-03-25T04:05:04.778Z,12.27
2018-03-25T04:07:32.258Z,9.90
2018-03-25T04:10:00.354Z,12.27
2018-03-25T04:12:27.842Z,10.40
2018-03-25T04:14:55.341Z,11.73
2018-03-25T04:17:22.837Z,7.90
2018-03-25T04:19:50.330Z,7.70
2018-03-25T04:22:17.818Z,10.93
2018-03-25T04:24:45.287Z,7.37
2018-03-25T04:27:12.838Z,9.73
2018-03-25T04:29:40.327Z,6.73
2018-03-25T04:32:07.808Z,6.20
2018-03-25T04:34:35.278Z,7.40
2018-03-25T04:37:02.762Z,6.73
2018-03-25T04:39:30.281Z,8.10
2018-03-25T04:41:57.801Z,5.57
2018-03-25T04:44:25.280Z,7.83
2018-03-25T04:46:52.781Z,10.70
2018-03-25T04:49:20.269Z,6.83
2018-03-25T04:51:47.751Z,6.30
2018-03-25T04:54:15.230Z,6.13
2018-03-25T04:56:42.712Z,8.77
2018-03-25T04:59:10.210Z,7.90
2018-03-25T05:01:37.710Z,10.77
2018-03-25T05:04:05.220Z,9.43
2018-03-25T05:06:32.705Z,6.90
2018-03-25T05:09:00.185Z,10.30
2018-03-25T05:11:27.678Z,10.20
2018-03-25T05:13:55.489Z,7.93
2018-03-25T05:16:22.990Z,7.47
2018-03-25T05:18:50.473Z,9.07
2018-03-25T05:21:17.962Z,7.93
2018-03-25T05:23:45.444Z,8.73
2018-03-25T05:26:12.922Z,9.20
2018-03-25T05:28:40.413Z,11.70
2018-03-25T05:31:08.001Z,8.93
2018-03-25T05:33:35.486Z,9.90
2018-03-25T05:36:03.024Z,6.50
2018-03-25T05:38:30.518Z,11.27
2018-03-25T05:40:58.002Z,7.70
2018-03-25T05:43:25.472Z,7.27
2018-03-25T05:45:53.011Z,11.07
2018-03-25T05:48:20.523Z,10.07
2018-03-25T05:50:48.015Z,11.67
2018-03-25T05:53:15.559Z,7.47
2018-03-25T05:55:43.084Z,8.57
2018-03-25T05:58:10.598Z,10.07
2018-03-25T06:00:38.089Z,8.40
2018-03-25T06:03:05.609Z,13.30
2018-03-25T06:05:33.183Z,9.70
2018-03-25T06:08:00.695Z,13.07
2018-03-25T06:10:28.194Z,11.33
2018-03-25T06:12:55.697Z,7.30
2018-03-25T06:15:23.194Z,9.27
2018-03-25T06:17:50.726Z,10.60
2018-03-25T06:20:18.210Z,13.03
2018-03-25T06:22:45.690Z,13.37
2018-03-25T06:25:13.201Z,11.67
2018-03-25T06:27:40.696Z,12.50
2018-03-25T06:30:08.182Z,11.80
2018-03-25T06:32:35.675Z,13.27
2018-03-25T06:35:03.201Z,14.10
2018-03-25T06:37:30.685Z,14.53
2018-03-25T06:39:58.174Z,14.27
2018-03-25T06:42:25.670Z,12.43
2018-03-25T06:44:53.162Z,9.73
2018-03-25T06:47:20.654Z,12.60
2018-03-25T06:49:48.293Z,12.23
2018-03-25T06:52:15.824Z,13.30
2018-03-25T06:54:43.317Z,14.30
2018-03-25T06:57:10.810Z,17.87
2018-03-25T06:59:38.309Z,14.60
2018-03-25T07:02:05.810Z,14.47
2018-03-25T07:04:33.366Z,15.80
2018-03-25T07:07:00.930Z,16.17
2018-03-25T07:09:28.426Z,17.47
2018-03-25T07:11:55.937Z,15.20
2018-03-25T07:14:23.447Z,11.40
2018-03-25T07:16:50.943Z,11.30
2018-03-25T07:19:18.433Z,15.93
2018-03-25T07:21:45.993Z,10.10
2018-03-25T07:24:13.478Z,15.07
2018-03-25T07:26:40.979Z,12.83
2018-03-25T07:29:08.457Z,12.57
2018-03-25T07:31:35.947Z,13.60
2018-03-25T07:34:03.458Z,12.77
2018-03-25T07:36:30.945Z,11.80
2018-03-25T07:38:58.429Z,12.80
2018-03-25T07:41:25.905Z,12.33
2018-03-25T07:43:53.391Z,15.77
2018-03-25T07:46:20.886Z,15.87
2018-03-25T07:48:48.382Z,14.07
2018-03-25T07:51:15.960Z,13.63
2018-03-25T07:53:43.502Z,14.87
2018-03-25T07:56:10.982Z,15.87
2018-03-25T07:58:38.473Z,15.93
2018-03-25T08:01:05.973Z,15.23
2018-03-25T08:03:33.530Z,16.20
2018-03-25T08:06:01.034Z,16.83
2018-03-25T08:08:28.597Z,16.97
2018-03-25T08:10:56.094Z,16.53
2018-03-25T08:13:23.606Z,14.97
2018-03-25T08:15:51.098Z,15.17
2018-03-25T08:18:18.606Z,13.33
2018-03-25T08:20:46.091Z,15.77
2018-03-25T08:23:13.617Z,14.53
2018-03-25T08:25:41.168Z,13.33
2018-03-25T08:28:08.666Z,15.57
2018-03-25T08:30:36.157Z,16.60
2018-03-25T08:33:03.682Z,14.77
2018-03-25T08:35:31.183Z,12.03
2018-03-25T08:37:58.695Z,15.70
2018-03-25T08:40:26.190Z,13.17
2018-03-25T08:42:53.680Z,20.23
2018-03-25T08:45:21.186Z,16.50
2018-03-25T08:47:49.106Z,16.87
2018-03-25T08:50:16.692Z,14.97
2018-03-25T08:52:44.744Z,13.33
2018-03-25T08:55:12.393Z,11.73
2018-03-25T08:57:40.199Z,11.20
2018-03-25T09:00:07.765Z,17.27
2018-03-25T09:02:35.550Z,10.63
2018-03-25T09:05:03.110Z,12.97
2018-03-25T09:07:30.633Z,12.27
2018-03-25T09:09:58.584Z,11.97
2018-03-25T09:12:26.209Z,9.87
2018-03-25T09:14:53.726Z,11.27
2018-03-25T09:17:21.321Z,13.40
2018-03-25T09:19:48.794Z,9.77
2018-03-25T09:22:16.278Z,10.07
2018-03-25T09:24:43.765Z,10.40
2018-03-25T09:27:11.286Z,11.13
2018-03-25T09:29:39.374Z,9.57
2018-03-25T09:32:06.861Z,10.80
2018-03-25T09:34:34.424Z,15.60
2018-03-25T09:37:02.153Z,11.40
2018-03-25T09:39:29.640Z,10.20
2018-03-25T09:41:57.122Z,9.43
2018-03-25T09:44:24.720Z,12.33
2018-03-25T09:46:52.373Z,14.47
2018-03-25T09:49:19.982Z,11.77
2018-03-25T09:51:47.462Z,10.93
2018-03-25T09:54:15.291Z,12.23
2018-03-25T09:56:42.786Z,14.33
2018-03-25T09:59:10.283Z,13.77
2018-03-25T10:01:56.522Z,12.77
2018-03-25T10:04:24.031Z,14.57
2018-03-25T10:06:51.554Z,22.80
2018-03-25T10:09:19.054Z,12.87
2018-03-25T10:11:46.611Z,11.00
2018-03-25T10:14:14.097Z,13.20
2018-03-25T10:16:41.646Z,11.80
2018-03-25T10:19:09.130Z,11.93
2018-03-25T10:21:36.681Z,13.80
2018-03-25T10:24:04.224Z,12.30
2018-03-25T10:26:32.046Z,12.07
2018-03-25T10:28:59.540Z,11.93
2018-03-25T10:31:27.038Z,11.83
2018-03-25T10:33:54.576Z,12.53
2018-03-25T10:36:22.070Z,11.67
2018-03-25T10:38:49.762Z,14.70
2018-03-25T10:41:17.296Z,11.90
2018-03-25T10:43:44.784Z,12.93
2018-03-25T10:46:12.268Z,9.63
2018-03-25T10:48:39.779Z,12.57
2018-03-25T10:51:07.262Z,10.23
2018-03-25T10:53:34.770Z,7.77
2018-03-25T10:56:02.342Z,6.87
2018-03-25T10:58:29.884Z,7.60
2018-03-25T11:00:57.423Z,7.53
2018-03-25T11:03:25.040Z,8.60
2018-03-25T11:05:52.570Z,7.17
2018-03-25T11:08:20.098Z,8.50
2018-03-25T11:10:47.582Z,10.17
2018-03-25T11:13:15.159Z,7.80
2018-03-25T11:15:42.648Z,10.60
2018-03-25T11:18:10.118Z,9.40
2018-03-25T11:20:37.607Z,7.47
2018-03-25T11:23:05.195Z,9.20
2018-03-25T11:25:32.742Z,9.73
2018-03-25T11:28:00.321Z,8.60
2018-03-25T11:30:27.930Z,7.43
2018-03-25T11:32:55.712Z,9.47
2018-03-25T11:35:23.407Z,10.70
2018-03-25T11:37:51.286Z,8.70
2018-03-25T11:40:19.032Z,10.03
2018-03-25T11:42:46.798Z,6.63
2018-03-25T11:45:14.641Z,6.43
2018-03-25T11:47:42.392Z,8.87
2018-03-25T11:50:10.103Z,8.07
2018-03-25T11:52:37.819Z,7.83
2018-03-25T11:55:05.525Z,7.00
2018-03-25T11:57:33.261Z,9.13
2018-03-25T12:00:00.981Z,6.30
2018-03-25T12:02:28.811Z,9.80
2018-03-25T12:04:56.510Z,8.40
2018-03-25T12:07:24.213Z,9.13
2018-03-25T12:09:52.482Z,8.07
2018-03-25T12:12:20.244Z,9.77
2018-03-25T12:14:48.041Z,8.07
2018-03-25T12:17:15.771Z,7.60
2018-03-25T12:19:43.545Z,7.40
2018-03-25T12:22:11.341Z,8.00
2018-03-25T12:24:39.156Z,6.73
2018-03-25T12:27:06.974Z,9.53
2018-03-25T12:29:34.958Z,7.53
2018-03-25T12:32:02.795Z,10.87
2018-03-25T12:34:30.652Z,9.50
2018-03-25T12:36:58.484Z,7.07
2018-03-25T12:39:26.341Z,8.93
2018-03-25T12:41:54.584Z,6.60
2018-03-25T12:44:22.495Z,7.10
2018-03-25T12:46:50.359Z,7.20
2018-03-25T12:49:18.224Z,7.93
2018-03-25T12:51:46.071Z,8.37
2018-03-25T12:54:13.905Z,5.13
2018-03-25T12:56:41.735Z,9.13
2018-03-25T12:59:09.752Z,7.63
2018-03-25T13:01:37.615Z,7.60
2018-03-25T13:04:05.479Z,6.90
2018-03-25T13:06:33.338Z,6.60
2018-03-25T13:09:01.254Z,12.53
2018-03-25T13:11:29.108Z,8.63
2018-03-25T13:13:57.024Z,4.87
2018-03-25T13:16:25.242Z,9.87
2018-03-25T13:18:53.083Z,6.30
2018-03-25T13:21:20.912Z,5.57
2018-03-25T13:23:48.789Z,6.13
2018-03-25T13:26:16.706Z,6.30
2018-03-25T13:28:44.551Z,7.37
2018-03-25T13:31:12.396Z,5.40
2018-03-25T13:33:40.216Z,8.37
2018-03-25T13:36:08.046Z,5.67
2018-03-25T13:38:35.861Z,11.43
2018-03-25T13:41:03.691Z,5.67
2018-03-25T13:43:31.525Z,5.50
2018-03-25T13:45:59.390Z,6.27
2018-03-25T13:48:27.209Z,6.50
2018-03-25T13:50:55.027Z,6.00
2018-03-25T13:53:22.892Z,4.47
2018-03-25T13:55:50.702Z,7.83
2018-03-25T13:58:18.572Z,7.33
2018-03-25T14:00:46.421Z,5.33
2018-03-25T14:03:14.263Z,4.97
2018-03-25T14:05:42.101Z,6.67
2018-03-25T14:08:09.946Z,7.43
2018-03-25T14:10:37.873Z,6.10
2018-03-25T14:13:05.708Z,6.80
2018-03-25T14:15:33.599Z,4.30
2018-03-25T14:18:01.673Z,5.90
2018-03-25T14:20:29.542Z,6.73
2018-03-25T14:22:57.634Z,7.93
2018-03-25T14:25:25.479Z,5.77
2018-03-25T14:27:53.372Z,5.77
2018-03-25T14:30:21.376Z,7.20
2018-03-25T14:32:49.235Z,8.13
2018-03-25T14:35:17.100Z,9.50
2018-03-25T14:37:44.930Z,2.97
2018-03-25T14:40:12.788Z,4.40
2018-03-25T14:42:40.621Z,4.30
2018-03-25T14:45:08.449Z,3.67
2018-03-25T14:47:36.318Z,8.20
2018-03-25T14:50:04.378Z,5.40
2018-03-25T14:52:32.427Z,3.33
2018-03-25T14:55:00.291Z,14.30
2018-03-25T14:57:28.164Z,12.67
2018-03-25T14:59:56.062Z,7.50
2018-03-25T15:02:23.918Z,7.70
2018-03-25T15:04:51.992Z,6.70
2018-03-25T15:07:19.892Z,5.77
2018-03-25T15:09:47.752Z,6.20
2018-03-25T15:12:15.618Z,6.40
2018-03-25T15:14:43.489Z,6.53
2018-03-25T15:17:11.346Z,6.10
2018-03-25T15:19:39.336Z,8.20
2018-03-25T15:22:07.404Z,5.77
2018-03-25T15:24:35.278Z,6.47
2018-03-25T15:27:03.254Z,6.00
2018-03-25T15:29:31.115Z,8.93
2018-03-25T15:31:59.024Z,7.97
2018-03-25T15:34:26.936Z,6.13
2018-03-25T15:36:54.817Z,11.63
2018-03-25T15:39:22.717Z,8.13
2018-03-25T15:41:50.584Z,7.87
2018-03-25T15:44:18.434Z,7.50
2018-03-25T15:46:46.308Z,7.57
2018-03-25T15:49:14.160Z,6.13
2018-03-25T15:51:42.002Z,7.07
2018-03-25T15:54:09.908Z,11.47
2018-03-25T15:56:37.795Z,6.57
2018-03-25T15:59:05.619Z,5.73
2018-03-25T16:01:33.439Z,7.87
2018-03-25T16:04:01.287Z,8.83
2018-03-25T16:06:29.181Z,4.77
2018-03-25T16:08:57.009Z,5.03
2018-03-25T16:11:24.861Z,5.17
2018-03-25T16:13:52.671Z,7.10
2018-03-25T16:16:21.401Z,6.37
2018-03-25T16:18:50.128Z,7.10
2018-03-25T16:21:19.159Z,7.43
2018-03-25T16:23:49.170Z,7.37
2018-03-25T16:26:18.005Z,6.57
2018-03-25T16:28:45.890Z,5.63
2018-03-25T16:31:14.693Z,5.00
2018-03-25T16:33:42.796Z,5.03
2018-03-25T16:36:11.010Z,6.53
2018-03-25T16:38:38.834Z,7.23
2018-03-25T16:41:06.725Z,7.83
2018-03-25T16:43:34.552Z,5.53
2018-03-25T16:46:02.421Z,9.57
2018-03-25T16:48:31.193Z,7.57
2018-03-25T16:50:59.029Z,6.97
2018-03-25T16:53:26.876Z,6.23
2018-03-25T16:55:54.709Z,6.87
2018-03-25T16:58:22.617Z,5.63
2018-03-25T17:00:51.554Z,9.87
2018-03-25T17:03:19.442Z,5.23
2018-03-25T17:05:47.342Z,6.43
2018-03-25T17:08:15.162Z,7.57
2018-03-25T17:10:43.051Z,5.50
2018-03-25T17:13:10.894Z,7.73
2018-03-25T17:15:39.624Z,6.27
2018-03-25T17:18:07.575Z,5.93
2018-03-25T17:20:35.404Z,7.13
2018-03-25T17:23:03.315Z,7.30
2018-03-25T17:25:31.169Z,6.53
2018-03-25T17:27:58.982Z,5.60
2018-03-25T17:30:27.627Z,4.40
2018-03-25T17:32:56.641Z,6.13
2018-03-25T17:35:25.484Z,5.60
2018-03-25T17:37:54.021Z,3.70
2018-03-25T17:40:22.770Z,4.73
2018-03-25T17:42:51.594Z,2.97
2018-03-25T17:45:20.126Z,6.53
2018-03-25T17:47:49.062Z,4.23
2018-03-25T17:50:18.082Z,4.33
2018-03-25T17:52:46.041Z,6.70
2018-03-25T17:55:13.886Z,3.87
2018-03-25T17:57:41.717Z,4.47
2018-03-25T18:00:09.552Z,3.90
2018-03-25T18:02:37.564Z,4.47
2018-03-25T18:05:05.450Z,4.50
2018-03-25T18:07:33.325Z,7.60
2018-03-25T18:10:01.177Z,4.33
2018-03-25T18:12:29.577Z,5.10
2018-03-25T18:14:58.358Z,7.20
2018-03-25T18:17:34.103Z,12.57
2018-03-25T18:19:56.246Z,9.40
2018-03-25T18:22:24.757Z,6.30
2018-03-25T18:24:53.883Z,6.37
2018-03-25T18:27:22.721Z,8.33
2018-03-25T18:29:51.554Z,5.33
2018-03-25T18:32:21.070Z,4.67
2018-03-25T18:34:51.382Z,5.63
2018-03-25T18:37:20.244Z,6.13
2018-03-25T18:39:49.048Z,6.10
2018-03-25T18:42:18.873Z,8.40
2018-03-25T18:44:47.893Z,8.03
2018-03-25T18:47:16.431Z,8.53
2018-03-25T18:49:47.127Z,6.57
2018-03-25T18:52:16.158Z,6.57
2018-03-25T18:54:46.169Z,10.03
2018-03-25T18:57:14.993Z,7.77
2018-03-25T18:59:43.835Z,6.67
2018-03-25T19:02:12.873Z,7.90
2018-03-25T19:04:41.916Z,7.30
2018-03-25T19:07:10.734Z,6.57
2018-03-25T19:09:40.352Z,8.50
2018-03-25T19:12:09.530Z,6.80
2018-03-25T19:14:38.406Z,8.97
2018-03-25T19:17:07.654Z,7.10
2018-03-25T19:19:36.417Z,7.47
2018-03-25T19:22:04.274Z,8.33
2018-03-25T19:24:32.194Z,11.10
2018-03-25T19:27:00.384Z,6.67
2018-03-25T19:29:29.257Z,12.47
2018-03-25T19:31:57.117Z,7.80
2018-03-25T19:34:25.012Z,7.50
2018-03-25T19:36:53.782Z,7.47
2018-03-25T19:39:22.835Z,11.30
2018-03-25T19:41:51.443Z,8.50
2018-03-25T19:44:20.888Z,8.67
2018-03-25T19:46:49.902Z,14.13
2018-03-25T19:49:17.761Z,8.50
2018-03-25T19:51:45.601Z,9.13
2018-03-25T19:54:13.491Z,7.90
2018-03-25T19:56:41.463Z,12.13
2018-03-25T19:59:09.351Z,8.10
2018-03-25T20:01:37.251Z,9.07
2018-03-25T20:04:05.093Z,10.77
2018-03-25T20:06:33.092Z,9.87
2018-03-25T20:09:00.963Z,6.83
2018-03-25T20:11:28.927Z,6.33
2018-03-25T20:13:56.876Z,6.73
2018-03-25T20:16:25.277Z,8.27
2018-03-25T20:18:53.822Z,9.00
2018-03-25T20:21:21.765Z,9.10
2018-03-25T20:23:49.597Z,7.40
2018-03-25T20:26:18.166Z,10.13
2018-03-25T20:28:47.280Z,6.97
2018-03-25T20:31:15.111Z,6.97
2018-03-25T20:33:42.949Z,6.57
2018-03-25T20:36:10.778Z,9.10
2018-03-25T20:38:38.616Z,12.47
2018-03-25T20:41:06.446Z,6.17
2018-03-25T20:43:34.616Z,7.53
2018-03-25T20:46:02.450Z,9.53
2018-03-25T20:48:30.297Z,6.60
2018-03-25T20:50:58.132Z,7.77
2018-03-25T20:53:25.963Z,6.70
2018-03-25T20:55:53.805Z,6.03
2018-03-25T20:58:21.656Z,10.67
2018-03-25T21:00:49.482Z,9.03
2018-03-25T21:03:17.422Z,5.87
2018-03-25T21:05:45.262Z,6.07
2018-03-25T21:08:13.088Z,5.50
2018-03-25T21:10:40.915Z,5.77
2018-03-25T21:13:08.733Z,3.97
2018-03-25T21:15:37.349Z,4.50
2018-03-25T21:18:05.246Z,4.00
2018-03-25T21:20:33.077Z,8.13
2018-03-25T21:23:00.903Z,3.60
2018-03-25T21:25:28.730Z,3.60
2018-03-25T21:27:56.566Z,2.87
2018-03-25T21:30:24.431Z,2.83
2018-03-25T21:32:52.251Z,3.53
2018-03-25T21:35:20.216Z,4.00
2018-03-25T21:37:48.067Z,4.70
2018-03-25T21:40:15.910Z,4.63
2018-03-25T21:42:43.750Z,4.23
2018-03-25T21:45:11.591Z,5.43
2018-03-25T21:47:39.483Z,6.40
2018-03-25T21:50:07.343Z,5.67
2018-03-25T21:52:35.259Z,6.23
2018-03-25T21:55:03.095Z,5.73
2018-03-25T21:57:30.839Z,6.23
2018-03-25T21:59:58.474Z,6.27
2018-03-25T22:02:26.002Z,7.47
2018-03-25T22:04:53.487Z,6.03
2018-03-25T22:07:21.013Z,6.70
2018-03-25T22:09:48.501Z,6.13
2018-03-25T22:12:15.999Z,5.40
2018-03-25T22:14:43.507Z,6.13
2018-03-25T22:17:11.005Z,8.03
2018-03-25T22:19:38.549Z,4.87
2018-03-25T22:22:06.037Z,6.70
2018-03-25T22:24:33.523Z,5.43
2018-03-25T22:27:00.999Z,5.00
2018-03-25T22:29:28.480Z,6.17
2018-03-25T22:31:56.036Z,6.93
2018-03-25T22:34:23.617Z,7.03
2018-03-25T22:36:51.094Z,5.97
2018-03-25T22:39:18.586Z,5.73
2018-03-25T22:41:46.059Z,5.70
2018-03-25T22:44:13.558Z,6.80
2018-03-25T22:46:41.035Z,5.63
2018-03-25T22:49:08.521Z,7.60
2018-03-25T22:51:36.045Z,7.40
2018-03-25T22:54:03.573Z,7.63
2018-03-25T22:56:31.064Z,6.33
2018-03-25T22:58:58.559Z,7.13
2018-03-25T23:01:26.048Z,7.07
2018-03-25T23:03:53.553Z,6.43
2018-03-25T23:06:21.103Z,10.33
2018-03-25T23:08:48.604Z,9.17
2018-03-25T23:11:16.093Z,11.20
2018-03-25T23:13:43.581Z,8.47
2018-03-25T23:16:11.081Z,8.13
2018-03-25T23:18:38.567Z,7.33
2018-03-25T23:21:06.062Z,6.60
2018-03-25T23:23:33.678Z,6.73
2018-03-25T23:26:01.149Z,5.97
2018-03-25T23:28:28.635Z,6.97
2018-03-25T23:30:56.126Z,6.17
2018-03-25T23:33:23.656Z,7.03
2018-03-25T23:35:51.163Z,6.13
2018-03-25T23:38:18.624Z,6.73
2018-03-25T23:40:46.110Z,7.57
2018-03-25T23:43:13.609Z,6.27
2018-03-25T23:45:41.093Z,7.43
2018-03-25T23:48:08.566Z,5.20
2018-03-25T23:50:36.049Z,7.60
2018-03-25T23:53:03.562Z,5.97
2018-03-25T23:55:31.584Z,6.63
2018-03-25T23:57:59.069Z,7.13
